sensor_id;sensor_type;location;lat;lon;timestamp;P1;durP1;ratioP1;P2;durP2;ratioP2
42988;SDS011;28622;43.716;20.668;2023-02-11T00:00:33;68.90;;;24.70;;
42988;SDS011;28622;43.716;20.668;2023-02-11T00:02:59;76.07;;;27.90;;
42988;SDS011;28622;43.716;20.668;2023-02-11T00:05:25;84.18;;;33.67;;
42988;SDS011;28622;43.716;20.668;2023-02-11T00:07:51;66.82;;;29.63;;
42988;SDS011;28622;43.716;20.668;2023-02-11T00:10:17;80.40;;;28.80;;
42988;SDS011;28622;43.716;20.668;2023-02-11T00:12:42;80.20;;;30.92;;
42988;SDS011;28622;43.716;20.668;2023-02-11T00:15:08;77.70;;;32.03;;
42988;SDS011;28622;43.716;20.668;2023-02-11T00:17:34;85.38;;;33.92;;
42988;SDS011;28622;43.716;20.668;2023-02-11T00:20:00;95.50;;;38.42;;
42988;SDS011;28622;43.716;20.668;2023-02-11T00:22:26;153.85;;;50.47;;
42988;SDS011;28622;43.716;20.668;2023-02-11T00:24:52;128.57;;;44.10;;
42988;SDS011;28622;43.716;20.668;2023-02-11T00:27:18;130.20;;;44.20;;
42988;SDS011;28622;43.716;20.668;2023-02-11T00:29:43;93.75;;;36.55;;
42988;SDS011;28622;43.716;20.668;2023-02-11T00:32:09;105.85;;;35.10;;
42988;SDS011;28622;43.716;20.668;2023-02-11T00:34:35;88.85;;;33.05;;
42988;SDS011;28622;43.716;20.668;2023-02-11T00:37:02;95.95;;;34.10;;
42988;SDS011;28622;43.716;20.668;2023-02-11T00:39:28;85.93;;;31.45;;
42988;SDS011;28622;43.716;20.668;2023-02-11T00:41:55;79.97;;;31.00;;
42988;SDS011;28622;43.716;20.668;2023-02-11T00:44:21;82.47;;;30.35;;
42988;SDS011;28622;43.716;20.668;2023-02-11T00:46:47;68.88;;;27.73;;
42988;SDS011;28622;43.716;20.668;2023-02-11T00:49:13;73.75;;;27.92;;
42988;SDS011;28622;43.716;20.668;2023-02-11T00:51:39;71.05;;;24.83;;
42988;SDS011;28622;43.716;20.668;2023-02-11T00:54:05;64.85;;;23.15;;
42988;SDS011;28622;43.716;20.668;2023-02-11T00:56:31;64.40;;;22.90;;
42988;SDS011;28622;43.716;20.668;2023-02-11T00:58:57;68.90;;;26.48;;
42988;SDS011;28622;43.716;20.668;2023-02-11T01:01:23;76.50;;;25.95;;
42988;SDS011;28622;43.716;20.668;2023-02-11T01:03:49;59.15;;;23.10;;
42988;SDS011;28622;43.716;20.668;2023-02-11T01:06:15;58.70;;;24.45;;
42988;SDS011;28622;43.716;20.668;2023-02-11T01:08:41;74.65;;;27.80;;
42988;SDS011;28622;43.716;20.668;2023-02-11T01:11:11;61.33;;;22.67;;
42988;SDS011;28622;43.716;20.668;2023-02-11T01:13:38;56.75;;;21.92;;
42988;SDS011;28622;43.716;20.668;2023-02-11T01:16:08;58.50;;;22.67;;
42988;SDS011;28622;43.716;20.668;2023-02-11T01:18:35;61.80;;;27.92;;
42988;SDS011;28622;43.716;20.668;2023-02-11T01:21:01;76.00;;;29.13;;
42988;SDS011;28622;43.716;20.668;2023-02-11T01:23:27;73.28;;;24.40;;
42988;SDS011;28622;43.716;20.668;2023-02-11T01:25:53;76.68;;;29.17;;
42988;SDS011;28622;43.716;20.668;2023-02-11T01:28:19;67.78;;;25.80;;
42988;SDS011;28622;43.716;20.668;2023-02-11T01:30:47;66.78;;;23.52;;
42988;SDS011;28622;43.716;20.668;2023-02-11T01:33:13;56.05;;;24.05;;
42988;SDS011;28622;43.716;20.668;2023-02-11T01:35:39;57.13;;;21.15;;
42988;SDS011;28622;43.716;20.668;2023-02-11T01:38:06;69.00;;;23.48;;
42988;SDS011;28622;43.716;20.668;2023-02-11T01:40:33;52.95;;;20.13;;
42988;SDS011;28622;43.716;20.668;2023-02-11T01:42:59;48.63;;;17.27;;
42988;SDS011;28622;43.716;20.668;2023-02-11T01:48:10;38.92;;;13.75;;
42988;SDS011;28622;43.716;20.668;2023-02-11T01:50:39;45.70;;;14.43;;
42988;SDS011;28622;43.716;20.668;2023-02-11T01:53:07;40.88;;;15.75;;
42988;SDS011;28622;43.716;20.668;2023-02-11T01:55:52;45.08;;;15.07;;
42988;SDS011;28622;43.716;20.668;2023-02-11T01:58:40;79.68;;;28.08;;
42988;SDS011;28622;43.716;20.668;2023-02-11T02:01:09;71.00;;;23.92;;
42988;SDS011;28622;43.716;20.668;2023-02-11T02:03:39;75.47;;;24.75;;
42988;SDS011;28622;43.716;20.668;2023-02-11T02:06:18;55.67;;;20.23;;
42988;SDS011;28622;43.716;20.668;2023-02-11T02:08:51;54.60;;;18.65;;
42988;SDS011;28622;43.716;20.668;2023-02-11T02:11:19;41.20;;;16.58;;
42988;SDS011;28622;43.716;20.668;2023-02-11T02:13:45;55.97;;;16.85;;
42988;SDS011;28622;43.716;20.668;2023-02-11T02:16:11;49.00;;;16.50;;
42988;SDS011;28622;43.716;20.668;2023-02-11T02:30:14;43.60;;;17.35;;
42988;SDS011;28622;43.716;20.668;2023-02-11T02:38:52;36.00;;;14.55;;
42988;SDS011;28622;43.716;20.668;2023-02-11T02:41:20;34.85;;;14.63;;
42988;SDS011;28622;43.716;20.668;2023-02-11T02:43:51;50.28;;;16.83;;
42988;SDS011;28622;43.716;20.668;2023-02-11T02:46:20;45.28;;;15.45;;
42988;SDS011;28622;43.716;20.668;2023-02-11T02:48:49;35.45;;;14.30;;
42988;SDS011;28622;43.716;20.668;2023-02-11T03:03:14;23.48;;;8.95;;
42988;SDS011;28622;43.716;20.668;2023-02-11T03:08:28;32.20;;;12.05;;
42988;SDS011;28622;43.716;20.668;2023-02-11T03:10:55;37.95;;;13.40;;
42988;SDS011;28622;43.716;20.668;2023-02-11T03:13:24;31.17;;;11.52;;
42988;SDS011;28622;43.716;20.668;2023-02-11T03:15:54;32.50;;;12.52;;
42988;SDS011;28622;43.716;20.668;2023-02-11T03:18:23;28.17;;;10.95;;
42988;SDS011;28622;43.716;20.668;2023-02-11T03:20:53;36.08;;;12.63;;
42988;SDS011;28622;43.716;20.668;2023-02-11T03:23:32;39.03;;;12.57;;
42988;SDS011;28622;43.716;20.668;2023-02-11T03:26:13;23.63;;;11.48;;
42988;SDS011;28622;43.716;20.668;2023-02-11T03:31:32;30.70;;;11.15;;
42988;SDS011;28622;43.716;20.668;2023-02-11T03:34:22;24.70;;;9.93;;
42988;SDS011;28622;43.716;20.668;2023-02-11T03:37:00;30.25;;;12.15;;
42988;SDS011;28622;43.716;20.668;2023-02-11T03:39:44;32.53;;;10.80;;
42988;SDS011;28622;43.716;20.668;2023-02-11T03:42:42;23.17;;;9.77;;
42988;SDS011;28622;43.716;20.668;2023-02-11T03:45:25;33.35;;;10.85;;
42988;SDS011;28622;43.716;20.668;2023-02-11T03:48:00;30.70;;;12.35;;
42988;SDS011;28622;43.716;20.668;2023-02-11T03:50:31;34.35;;;10.82;;
42988;SDS011;28622;43.716;20.668;2023-02-11T03:52:59;32.80;;;11.70;;
42988;SDS011;28622;43.716;20.668;2023-02-11T03:55:26;37.33;;;11.60;;
42988;SDS011;28622;43.716;20.668;2023-02-11T03:57:54;42.53;;;14.38;;
42988;SDS011;28622;43.716;20.668;2023-02-11T04:00:20;39.10;;;12.25;;
42988;SDS011;28622;43.716;20.668;2023-02-11T04:02:57;37.15;;;11.80;;
42988;SDS011;28622;43.716;20.668;2023-02-11T04:05:23;36.03;;;12.15;;
42988;SDS011;28622;43.716;20.668;2023-02-11T04:07:49;37.08;;;13.43;;
42988;SDS011;28622;43.716;20.668;2023-02-11T04:10:15;36.78;;;12.02;;
42988;SDS011;28622;43.716;20.668;2023-02-11T04:12:40;36.75;;;14.68;;
42988;SDS011;28622;43.716;20.668;2023-02-11T04:15:06;36.67;;;12.35;;
42988;SDS011;28622;43.716;20.668;2023-02-11T04:17:32;42.90;;;11.27;;
42988;SDS011;28622;43.716;20.668;2023-02-11T04:19:58;40.30;;;13.77;;
42988;SDS011;28622;43.716;20.668;2023-02-11T04:22:24;41.90;;;13.30;;
42988;SDS011;28622;43.716;20.668;2023-02-11T04:24:50;41.83;;;14.43;;
42988;SDS011;28622;43.716;20.668;2023-02-11T04:27:15;46.35;;;16.33;;
42988;SDS011;28622;43.716;20.668;2023-02-11T04:29:41;49.50;;;15.27;;
42988;SDS011;28622;43.716;20.668;2023-02-11T04:32:07;53.33;;;15.50;;
42988;SDS011;28622;43.716;20.668;2023-02-11T04:34:34;50.88;;;13.70;;
42988;SDS011;28622;43.716;20.668;2023-02-11T04:37:00;48.85;;;15.32;;
42988;SDS011;28622;43.716;20.668;2023-02-11T04:39:26;35.85;;;13.48;;
42988;SDS011;28622;43.716;20.668;2023-02-11T04:41:52;39.47;;;13.80;;
42988;SDS011;28622;43.716;20.668;2023-02-11T04:44:17;46.50;;;13.10;;
42988;SDS011;28622;43.716;20.668;2023-02-11T04:46:43;34.47;;;14.57;;
42988;SDS011;28622;43.716;20.668;2023-02-11T04:49:11;37.40;;;14.38;;
42988;SDS011;28622;43.716;20.668;2023-02-11T04:51:38;45.70;;;12.63;;
42988;SDS011;28622;43.716;20.668;2023-02-11T04:54:04;40.25;;;11.57;;
42988;SDS011;28622;43.716;20.668;2023-02-11T04:56:29;37.28;;;12.57;;
42988;SDS011;28622;43.716;20.668;2023-02-11T04:58:55;41.05;;;12.98;;
42988;SDS011;28622;43.716;20.668;2023-02-11T05:01:21;28.58;;;10.07;;
42988;SDS011;28622;43.716;20.668;2023-02-11T05:03:47;32.20;;;11.57;;
42988;SDS011;28622;43.716;20.668;2023-02-11T05:06:12;31.83;;;10.02;;
42988;SDS011;28622;43.716;20.668;2023-02-11T05:08:38;35.53;;;12.60;;
42988;SDS011;28622;43.716;20.668;2023-02-11T05:11:04;34.67;;;13.68;;
42988;SDS011;28622;43.716;20.668;2023-02-11T05:13:31;26.85;;;10.02;;
42988;SDS011;28622;43.716;20.668;2023-02-11T05:15:57;35.22;;;12.50;;
42988;SDS011;28622;43.716;20.668;2023-02-11T05:18:23;25.13;;;9.75;;
42988;SDS011;28622;43.716;20.668;2023-02-11T05:20:49;21.33;;;10.05;;
42988;SDS011;28622;43.716;20.668;2023-02-11T05:23:14;29.90;;;11.82;;
42988;SDS011;28622;43.716;20.668;2023-02-11T05:25:40;30.52;;;11.77;;
42988;SDS011;28622;43.716;20.668;2023-02-11T05:28:06;25.30;;;11.40;;
42988;SDS011;28622;43.716;20.668;2023-02-11T05:30:32;23.25;;;9.45;;
42988;SDS011;28622;43.716;20.668;2023-02-11T05:32:57;27.70;;;9.32;;
42988;SDS011;28622;43.716;20.668;2023-02-11T05:35:23;28.10;;;9.43;;
42988;SDS011;28622;43.716;20.668;2023-02-11T05:37:49;20.98;;;8.85;;
42988;SDS011;28622;43.716;20.668;2023-02-11T05:40:15;24.70;;;8.98;;
42988;SDS011;28622;43.716;20.668;2023-02-11T05:42:41;37.50;;;11.35;;
42988;SDS011;28622;43.716;20.668;2023-02-11T05:45:07;19.92;;;9.95;;
42988;SDS011;28622;43.716;20.668;2023-02-11T05:47:33;26.92;;;11.07;;
42988;SDS011;28622;43.716;20.668;2023-02-11T05:49:58;26.48;;;10.65;;
42988;SDS011;28622;43.716;20.668;2023-02-11T05:52:24;31.02;;;11.90;;
42988;SDS011;28622;43.716;20.668;2023-02-11T05:54:50;41.45;;;12.18;;
42988;SDS011;28622;43.716;20.668;2023-02-11T05:57:16;25.90;;;10.85;;
42988;SDS011;28622;43.716;20.668;2023-02-11T05:59:42;35.83;;;11.52;;
42988;SDS011;28622;43.716;20.668;2023-02-11T06:02:08;40.30;;;12.60;;
42988;SDS011;28622;43.716;20.668;2023-02-11T06:04:35;43.00;;;12.77;;
42988;SDS011;28622;43.716;20.668;2023-02-11T06:07:01;32.92;;;13.60;;
42988;SDS011;28622;43.716;20.668;2023-02-11T06:09:28;36.35;;;12.73;;
42988;SDS011;28622;43.716;20.668;2023-02-11T06:11:54;41.95;;;14.48;;
42988;SDS011;28622;43.716;20.668;2023-02-11T06:14:20;37.47;;;14.00;;
42988;SDS011;28622;43.716;20.668;2023-02-11T06:16:45;37.63;;;14.55;;
42988;SDS011;28622;43.716;20.668;2023-02-11T06:19:11;42.60;;;14.57;;
42988;SDS011;28622;43.716;20.668;2023-02-11T06:21:37;34.47;;;14.65;;
42988;SDS011;28622;43.716;20.668;2023-02-11T06:24:04;49.30;;;14.63;;
42988;SDS011;28622;43.716;20.668;2023-02-11T06:26:30;36.33;;;15.45;;
42988;SDS011;28622;43.716;20.668;2023-02-11T06:28:58;53.08;;;20.95;;
42988;SDS011;28622;43.716;20.668;2023-02-11T06:31:25;60.15;;;21.40;;
42988;SDS011;28622;43.716;20.668;2023-02-11T06:33:51;60.10;;;19.33;;
42988;SDS011;28622;43.716;20.668;2023-02-11T06:36:19;50.13;;;20.33;;
42988;SDS011;28622;43.716;20.668;2023-02-11T06:38:47;43.92;;;19.38;;
42988;SDS011;28622;43.716;20.668;2023-02-11T06:41:14;78.40;;;23.25;;
42988;SDS011;28622;43.716;20.668;2023-02-11T06:43:41;59.95;;;23.10;;
42988;SDS011;28622;43.716;20.668;2023-02-11T06:46:07;101.28;;;32.40;;
42988;SDS011;28622;43.716;20.668;2023-02-11T06:48:34;71.03;;;25.77;;
42988;SDS011;28622;43.716;20.668;2023-02-11T06:51:00;53.28;;;22.58;;
42988;SDS011;28622;43.716;20.668;2023-02-11T06:53:28;158.68;;;51.45;;
42988;SDS011;28622;43.716;20.668;2023-02-11T06:55:55;79.88;;;28.38;;
42988;SDS011;28622;43.716;20.668;2023-02-11T06:58:20;40.65;;;19.08;;
42988;SDS011;28622;43.716;20.668;2023-02-11T07:00:46;47.78;;;20.08;;
42988;SDS011;28622;43.716;20.668;2023-02-11T07:03:12;146.73;;;45.53;;
42988;SDS011;28622;43.716;20.668;2023-02-11T07:05:40;216.52;;;72.45;;
42988;SDS011;28622;43.716;20.668;2023-02-11T07:08:07;43.03;;;15.68;;
42988;SDS011;28622;43.716;20.668;2023-02-11T07:10:32;51.03;;;19.08;;
42988;SDS011;28622;43.716;20.668;2023-02-11T07:12:58;33.83;;;15.05;;
42988;SDS011;28622;43.716;20.668;2023-02-11T07:15:24;44.35;;;18.63;;
42988;SDS011;28622;43.716;20.668;2023-02-11T07:17:50;26.45;;;11.27;;
42988;SDS011;28622;43.716;20.668;2023-02-11T07:20:15;96.35;;;36.72;;
42988;SDS011;28622;43.716;20.668;2023-02-11T07:22:41;61.38;;;22.73;;
42988;SDS011;28622;43.716;20.668;2023-02-11T07:25:07;19.65;;;7.95;;
42988;SDS011;28622;43.716;20.668;2023-02-11T07:27:33;16.70;;;7.00;;
42988;SDS011;28622;43.716;20.668;2023-02-11T07:29:58;23.17;;;9.73;;
42988;SDS011;28622;43.716;20.668;2023-02-11T07:32:24;16.80;;;7.40;;
42988;SDS011;28622;43.716;20.668;2023-02-11T07:34:50;19.40;;;7.32;;
42988;SDS011;28622;43.716;20.668;2023-02-11T07:37:16;30.13;;;13.75;;
42988;SDS011;28622;43.716;20.668;2023-02-11T07:39:41;20.58;;;9.98;;
42988;SDS011;28622;43.716;20.668;2023-02-11T07:42:07;30.23;;;14.07;;
42988;SDS011;28622;43.716;20.668;2023-02-11T07:44:33;20.98;;;9.55;;
42988;SDS011;28622;43.716;20.668;2023-02-11T07:47:00;33.97;;;17.30;;
42988;SDS011;28622;43.716;20.668;2023-02-11T07:49:27;11.63;;;7.03;;
42988;SDS011;28622;43.716;20.668;2023-02-11T07:51:53;29.67;;;12.13;;
42988;SDS011;28622;43.716;20.668;2023-02-11T07:54:19;23.08;;;11.07;;
42988;SDS011;28622;43.716;20.668;2023-02-11T07:56:44;22.17;;;11.13;;
42988;SDS011;28622;43.716;20.668;2023-02-11T07:59:10;20.95;;;9.18;;
42988;SDS011;28622;43.716;20.668;2023-02-11T08:01:36;25.13;;;9.88;;
42988;SDS011;28622;43.716;20.668;2023-02-11T08:04:02;21.45;;;9.48;;
42988;SDS011;28622;43.716;20.668;2023-02-11T08:06:29;26.10;;;11.82;;
42988;SDS011;28622;43.716;20.668;2023-02-11T08:08:56;22.00;;;11.38;;
42988;SDS011;28622;43.716;20.668;2023-02-11T08:11:27;16.02;;;7.70;;
42988;SDS011;28622;43.716;20.668;2023-02-11T08:13:53;15.38;;;8.43;;
42988;SDS011;28622;43.716;20.668;2023-02-11T08:16:24;17.73;;;8.77;;
42988;SDS011;28622;43.716;20.668;2023-02-11T08:18:55;21.17;;;8.02;;
42988;SDS011;28622;43.716;20.668;2023-02-11T08:21:23;11.00;;;6.63;;
42988;SDS011;28622;43.716;20.668;2023-02-11T08:23:49;18.65;;;9.27;;
42988;SDS011;28622;43.716;20.668;2023-02-11T08:26:19;19.65;;;8.55;;
42988;SDS011;28622;43.716;20.668;2023-02-11T08:28:46;17.27;;;8.95;;
42988;SDS011;28622;43.716;20.668;2023-02-11T08:31:17;13.20;;;6.35;;
42988;SDS011;28622;43.716;20.668;2023-02-11T08:33:45;10.00;;;5.10;;
42988;SDS011;28622;43.716;20.668;2023-02-11T08:36:12;10.63;;;5.15;;
42988;SDS011;28622;43.716;20.668;2023-02-11T08:38:40;11.73;;;5.38;;
42988;SDS011;28622;43.716;20.668;2023-02-11T08:41:06;9.75;;;5.20;;
42988;SDS011;28622;43.716;20.668;2023-02-11T08:43:32;7.68;;;4.45;;
42988;SDS011;28622;43.716;20.668;2023-02-11T08:45:59;11.82;;;6.03;;
42988;SDS011;28622;43.716;20.668;2023-02-11T08:48:25;12.05;;;4.90;;
42988;SDS011;28622;43.716;20.668;2023-02-11T08:50:52;8.98;;;4.70;;
42988;SDS011;28622;43.716;20.668;2023-02-11T08:53:19;8.60;;;3.38;;
42988;SDS011;28622;43.716;20.668;2023-02-11T08:55:48;7.03;;;3.58;;
42988;SDS011;28622;43.716;20.668;2023-02-11T08:58:15;6.47;;;3.40;;
42988;SDS011;28622;43.716;20.668;2023-02-11T09:00:41;38.05;;;15.85;;
42988;SDS011;28622;43.716;20.668;2023-02-11T09:03:09;14.13;;;6.90;;
42988;SDS011;28622;43.716;20.668;2023-02-11T09:05:40;12.60;;;5.70;;
42988;SDS011;28622;43.716;20.668;2023-02-11T09:08:06;5.97;;;3.42;;
42988;SDS011;28622;43.716;20.668;2023-02-11T09:10:32;13.07;;;5.25;;
42988;SDS011;28622;43.716;20.668;2023-02-11T09:12:58;12.30;;;6.18;;
42988;SDS011;28622;43.716;20.668;2023-02-11T09:15:24;12.75;;;5.97;;
42988;SDS011;28622;43.716;20.668;2023-02-11T09:17:50;17.33;;;7.45;;
42988;SDS011;28622;43.716;20.668;2023-02-11T09:20:16;16.45;;;6.95;;
42988;SDS011;28622;43.716;20.668;2023-02-11T09:22:41;16.00;;;6.88;;
42988;SDS011;28622;43.716;20.668;2023-02-11T09:25:07;14.38;;;7.20;;
42988;SDS011;28622;43.716;20.668;2023-02-11T09:27:33;18.83;;;8.45;;
42988;SDS011;28622;43.716;20.668;2023-02-11T09:29:58;16.83;;;8.43;;
42988;SDS011;28622;43.716;20.668;2023-02-11T09:32:24;20.00;;;10.25;;
42988;SDS011;28622;43.716;20.668;2023-02-11T09:34:50;21.65;;;8.40;;
42988;SDS011;28622;43.716;20.668;2023-02-11T09:37:16;18.73;;;9.32;;
42988;SDS011;28622;43.716;20.668;2023-02-11T09:39:41;17.45;;;8.45;;
42988;SDS011;28622;43.716;20.668;2023-02-11T09:44:56;16.65;;;9.07;;
42988;SDS011;28622;43.716;20.668;2023-02-11T09:47:26;18.92;;;9.48;;
42988;SDS011;28622;43.716;20.668;2023-02-11T09:49:57;22.20;;;10.07;;
42988;SDS011;28622;43.716;20.668;2023-02-11T09:55:26;18.15;;;8.82;;
42988;SDS011;28622;43.716;20.668;2023-02-11T09:57:54;21.35;;;9.68;;
42988;SDS011;28622;43.716;20.668;2023-02-11T10:00:30;20.38;;;8.60;;
42988;SDS011;28622;43.716;20.668;2023-02-11T10:08:15;11.30;;;5.78;;
42988;SDS011;28622;43.716;20.668;2023-02-11T10:24:02;12.18;;;6.10;;
42988;SDS011;28622;43.716;20.668;2023-02-11T10:26:34;13.82;;;5.95;;
42988;SDS011;28622;43.716;20.668;2023-02-11T10:29:02;14.55;;;6.20;;
42988;SDS011;28622;43.716;20.668;2023-02-11T10:31:39;13.70;;;6.63;;
42988;SDS011;28622;43.716;20.668;2023-02-11T10:34:11;14.73;;;7.05;;
42988;SDS011;28622;43.716;20.668;2023-02-11T10:36:40;12.82;;;4.75;;
42988;SDS011;28622;43.716;20.668;2023-02-11T10:41:45;11.43;;;5.22;;
42988;SDS011;28622;43.716;20.668;2023-02-11T10:46:48;12.30;;;4.82;;
42988;SDS011;28622;43.716;20.668;2023-02-11T10:49:35;16.70;;;6.53;;
42988;SDS011;28622;43.716;20.668;2023-02-11T10:52:13;10.10;;;5.03;;
42988;SDS011;28622;43.716;20.668;2023-02-11T10:55:01;15.48;;;6.25;;
42988;SDS011;28622;43.716;20.668;2023-02-11T11:00:30;10.93;;;4.70;;
42988;SDS011;28622;43.716;20.668;2023-02-11T11:03:24;10.73;;;4.68;;
42988;SDS011;28622;43.716;20.668;2023-02-11T11:05:51;16.92;;;6.05;;
42988;SDS011;28622;43.716;20.668;2023-02-11T11:08:36;7.30;;;4.32;;
42988;SDS011;28622;43.716;20.668;2023-02-11T11:11:14;11.80;;;5.57;;
42988;SDS011;28622;43.716;20.668;2023-02-11T11:16:23;9.68;;;4.15;;
42988;SDS011;28622;43.716;20.668;2023-02-11T11:24:18;11.23;;;4.78;;
42988;SDS011;28622;43.716;20.668;2023-02-11T11:26:51;13.82;;;4.88;;
42988;SDS011;28622;43.716;20.668;2023-02-11T11:29:42;10.15;;;4.20;;
42988;SDS011;28622;43.716;20.668;2023-02-11T11:34:50;7.88;;;3.97;;
42988;SDS011;28622;43.716;20.668;2023-02-11T11:37:39;8.90;;;5.30;;
42988;SDS011;28622;43.716;20.668;2023-02-11T11:42:40;11.25;;;5.35;;
42988;SDS011;28622;43.716;20.668;2023-02-11T11:51:04;9.30;;;4.50;;
42988;SDS011;28622;43.716;20.668;2023-02-11T11:56:05;8.90;;;4.82;;
42988;SDS011;28622;43.716;20.668;2023-02-11T11:58:34;11.70;;;4.90;;
42988;SDS011;28622;43.716;20.668;2023-02-11T12:12:12;9.73;;;4.50;;
42988;SDS011;28622;43.716;20.668;2023-02-11T12:14:51;13.20;;;5.05;;
42988;SDS011;28622;43.716;20.668;2023-02-11T12:17:47;7.93;;;5.13;;
42988;SDS011;28622;43.716;20.668;2023-02-11T12:36:36;6.30;;;4.05;;
42988;SDS011;28622;43.716;20.668;2023-02-11T12:39:33;14.02;;;5.03;;
42988;SDS011;28622;43.716;20.668;2023-02-11T12:56:35;11.88;;;5.55;;
42988;SDS011;28622;43.716;20.668;2023-02-11T12:59:07;13.80;;;5.55;;
42988;SDS011;28622;43.716;20.668;2023-02-11T13:01:41;10.90;;;5.32;;
42988;SDS011;28622;43.716;20.668;2023-02-11T13:06:45;7.78;;;4.43;;
42988;SDS011;28622;43.716;20.668;2023-02-11T13:09:21;10.40;;;5.55;;
42988;SDS011;28622;43.716;20.668;2023-02-11T13:11:55;10.88;;;5.55;;
42988;SDS011;28622;43.716;20.668;2023-02-11T13:14:44;14.85;;;5.50;;
42988;SDS011;28622;43.716;20.668;2023-02-11T13:17:14;13.10;;;5.68;;
42988;SDS011;28622;43.716;20.668;2023-02-11T13:19:59;10.30;;;5.25;;
42988;SDS011;28622;43.716;20.668;2023-02-11T13:22:43;12.02;;;4.95;;
42988;SDS011;28622;43.716;20.668;2023-02-11T13:25:39;10.27;;;4.85;;
42988;SDS011;28622;43.716;20.668;2023-02-11T13:28:21;11.57;;;5.30;;
42988;SDS011;28622;43.716;20.668;2023-02-11T13:31:00;9.05;;;4.57;;
42988;SDS011;28622;43.716;20.668;2023-02-11T13:33:31;14.95;;;4.80;;
42988;SDS011;28622;43.716;20.668;2023-02-11T13:38:29;13.00;;;5.47;;
42988;SDS011;28622;43.716;20.668;2023-02-11T13:43:58;9.25;;;4.88;;
42988;SDS011;28622;43.716;20.668;2023-02-11T13:51:54;15.80;;;4.72;;
42988;SDS011;28622;43.716;20.668;2023-02-11T13:54:32;10.55;;;5.35;;
42988;SDS011;28622;43.716;20.668;2023-02-11T13:59:47;12.52;;;5.10;;
42988;SDS011;28622;43.716;20.668;2023-02-11T14:02:26;9.07;;;5.57;;
42988;SDS011;28622;43.716;20.668;2023-02-11T14:11:39;13.18;;;5.32;;
42988;SDS011;28622;43.716;20.668;2023-02-11T14:19:30;12.27;;;4.80;;
42988;SDS011;28622;43.716;20.668;2023-02-11T14:38:29;13.30;;;6.35;;
42988;SDS011;28622;43.716;20.668;2023-02-11T14:41:07;17.50;;;7.75;;
42988;SDS011;28622;43.716;20.668;2023-02-11T14:43:45;11.70;;;6.28;;
42988;SDS011;28622;43.716;20.668;2023-02-11T14:46:14;15.90;;;6.45;;
42988;SDS011;28622;43.716;20.668;2023-02-11T14:48:46;16.50;;;6.78;;
42988;SDS011;28622;43.716;20.668;2023-02-11T14:51:15;21.75;;;5.68;;
42988;SDS011;28622;43.716;20.668;2023-02-11T14:53:45;11.57;;;5.45;;
42988;SDS011;28622;43.716;20.668;2023-02-11T14:56:20;12.30;;;5.50;;
42988;SDS011;28622;43.716;20.668;2023-02-11T14:58:55;11.23;;;4.68;;
42988;SDS011;28622;43.716;20.668;2023-02-11T15:01:23;32.50;;;11.63;;
42988;SDS011;28622;43.716;20.668;2023-02-11T15:03:52;21.00;;;7.70;;
42988;SDS011;28622;43.716;20.668;2023-02-11T15:11:48;19.45;;;6.32;;
42988;SDS011;28622;43.716;20.668;2023-02-11T15:14:32;12.60;;;5.95;;
42988;SDS011;28622;43.716;20.668;2023-02-11T15:17:03;10.60;;;5.50;;
42988;SDS011;28622;43.716;20.668;2023-02-11T15:21:59;18.23;;;7.00;;
42988;SDS011;28622;43.716;20.668;2023-02-11T15:24:26;13.57;;;6.93;;
42988;SDS011;28622;43.716;20.668;2023-02-11T15:27:15;15.65;;;7.13;;
42988;SDS011;28622;43.716;20.668;2023-02-11T15:29:46;17.33;;;7.85;;
42988;SDS011;28622;43.716;20.668;2023-02-11T15:32:21;16.75;;;7.93;;
42988;SDS011;28622;43.716;20.668;2023-02-11T15:34:49;19.88;;;8.55;;
42988;SDS011;28622;43.716;20.668;2023-02-11T15:37:19;24.92;;;10.98;;
42988;SDS011;28622;43.716;20.668;2023-02-11T15:39:53;33.50;;;11.63;;
42988;SDS011;28622;43.716;20.668;2023-02-11T15:42:31;21.63;;;10.60;;
42988;SDS011;28622;43.716;20.668;2023-02-11T15:48:08;25.45;;;11.15;;
42988;SDS011;28622;43.716;20.668;2023-02-11T15:50:35;29.83;;;10.73;;
42988;SDS011;28622;43.716;20.668;2023-02-11T15:55:51;39.45;;;13.48;;
42988;SDS011;28622;43.716;20.668;2023-02-11T15:58:23;42.35;;;15.70;;
42988;SDS011;28622;43.716;20.668;2023-02-11T16:00:50;41.97;;;16.98;;
42988;SDS011;28622;43.716;20.668;2023-02-11T16:03:24;86.45;;;33.60;;
42988;SDS011;28622;43.716;20.668;2023-02-11T16:06:19;80.95;;;31.70;;
42988;SDS011;28622;43.716;20.668;2023-02-11T16:08:59;73.78;;;29.20;;
42988;SDS011;28622;43.716;20.668;2023-02-11T16:11:28;71.07;;;29.85;;
42988;SDS011;28622;43.716;20.668;2023-02-11T16:13:56;100.20;;;42.60;;
42988;SDS011;28622;43.716;20.668;2023-02-11T16:16:25;99.47;;;35.67;;
42988;SDS011;28622;43.716;20.668;2023-02-11T16:18:58;77.65;;;33.63;;
42988;SDS011;28622;43.716;20.668;2023-02-11T16:21:32;66.85;;;28.15;;
42988;SDS011;28622;43.716;20.668;2023-02-11T16:24:00;65.63;;;27.67;;
42988;SDS011;28622;43.716;20.668;2023-02-11T16:26:31;57.08;;;25.92;;
42988;SDS011;28622;43.716;20.668;2023-02-11T16:32:03;54.10;;;24.35;;
42988;SDS011;28622;43.716;20.668;2023-02-11T16:34:49;46.65;;;23.52;;
42988;SDS011;28622;43.716;20.668;2023-02-11T16:37:15;58.58;;;25.45;;
42988;SDS011;28622;43.716;20.668;2023-02-11T16:39:41;53.25;;;24.02;;
42988;SDS011;28622;43.716;20.668;2023-02-11T16:42:07;36.67;;;17.77;;
42988;SDS011;28622;43.716;20.668;2023-02-11T16:44:34;38.63;;;18.13;;
42988;SDS011;28622;43.716;20.668;2023-02-11T16:47:00;39.42;;;17.67;;
42988;SDS011;28622;43.716;20.668;2023-02-11T16:49:28;40.33;;;17.15;;
42988;SDS011;28622;43.716;20.668;2023-02-11T16:51:58;33.80;;;15.57;;
42988;SDS011;28622;43.716;20.668;2023-02-11T16:54:28;31.13;;;13.32;;
42988;SDS011;28622;43.716;20.668;2023-02-11T16:56:54;31.65;;;13.85;;
42988;SDS011;28622;43.716;20.668;2023-02-11T16:59:20;37.10;;;14.65;;
42988;SDS011;28622;43.716;20.668;2023-02-11T17:01:46;35.25;;;15.23;;
42988;SDS011;28622;43.716;20.668;2023-02-11T17:04:18;39.13;;;16.67;;
42988;SDS011;28622;43.716;20.668;2023-02-11T17:06:47;29.70;;;15.18;;
42988;SDS011;28622;43.716;20.668;2023-02-11T17:09:24;42.03;;;18.98;;
42988;SDS011;28622;43.716;20.668;2023-02-11T17:11:51;58.33;;;25.70;;
42988;SDS011;28622;43.716;20.668;2023-02-11T17:14:17;97.50;;;49.78;;
42988;SDS011;28622;43.716;20.668;2023-02-11T17:16:44;92.65;;;39.10;;
42988;SDS011;28622;43.716;20.668;2023-02-11T17:19:11;101.45;;;43.08;;
42988;SDS011;28622;43.716;20.668;2023-02-11T17:21:41;107.53;;;47.00;;
42988;SDS011;28622;43.716;20.668;2023-02-11T17:24:08;92.75;;;39.92;;
42988;SDS011;28622;43.716;20.668;2023-02-11T17:26:34;72.70;;;34.20;;
42988;SDS011;28622;43.716;20.668;2023-02-11T17:29:03;81.07;;;36.35;;
42988;SDS011;28622;43.716;20.668;2023-02-11T17:31:30;60.72;;;29.55;;
42988;SDS011;28622;43.716;20.668;2023-02-11T17:33:57;66.28;;;30.85;;
42988;SDS011;28622;43.716;20.668;2023-02-11T17:36:23;62.13;;;26.25;;
42988;SDS011;28622;43.716;20.668;2023-02-11T17:38:48;52.75;;;24.10;;
42988;SDS011;28622;43.716;20.668;2023-02-11T17:41:16;46.35;;;20.50;;